Terminal Aerodrome Forecast
Issued by NWS

Home | Current Version | Previous Version | Text Only | Print | Product List | Glossary Off
Versions: 1 2 3 4 5 6 7 8 9 10 11 12 13 14 15 16

000
FTUS43 KMPX 190520
TAFRWF
TAF
KRWF 190520Z 1906/2006 28006KT P6SM SKC
     FM190800 23005KT P6SM SKC
     FM191200 18005KT P6SM SKC
     FM191500 17010KT P6SM SKC
     FM191800 18015G24KT P6SM SKC
     FM192300 17011KT P6SM SKC
     FM200300 16008KT P6SM SKC WS020/20040KT=

USA.gov is the U.S. government's official web portal to all federal, state and local government web resources and services.